Jump to content
Sign in to follow this  
Steven Brown

vATIS METAR String Length Error

Recommended Posts

Hi,

 

I was using vATIS tonight when I got an Unhandled Exception Error. vATIS still transmits but with the following METAR, it doesn't say QNH1006 at the end.

 

METAR (200 char long):

YSSY 160800Z 19015KT 9999 -DZ VCTS FEW040 BKN080 BKN140 22/19 Q1006 FM0900 08008KT 9999 -SHRA FEW010 SCT030 FM1030 18015KT 9999 -SHRA SCT005 BKN010 TEMPO 0800/1100 VRB20G30KT 3000 TSRA BKN010 SCT030CB

 

************** Exception Text **************

System.NullReferenceException: Object reference not set to an instance of an object.

at bbv.Common.EventBroker.Handlers.EventBrokerHandlerBase.HandleSubscriberMethodException(TargetInvocationException targetInvocationException, IEventTopic eventTopic)

at bbv.Common.EventBroker.Handlers.UserInterfaceAsync.<>c__DisplayCl[Mod - Happy Thoughts]4_0.b__0(Object data)

 

 

 

EDIT: A new METAR came in that was 3 characters shorter (197) and all worked OK with no errors when conencting like before:

YSSY 160830Z 16015KT 9999 -SHRA FEW015 SCT030 BKN080 22/19 Q1007 FM0900 08008KT 9999 -SHRA FEW010 SCT030 FM1030 18015KT 9999 -SHRA SCT005 BKN010 TEMPO 0930/1130 VRB20G30KT 3000 TSRA BKN010 SCT030CB


Steven Brown

Director of Events & Communications, VATPAC - VATSIM Australia-Pacific

Share this post


Link to post
Share on other sites

Please sign in to comment

You will be able to leave a comment after signing in



Sign In Now
Sign in to follow this  

×
×
  • Create New...